createdAt,value
2019-05-11T00:02:04.021Z,95.60
2019-05-11T00:04:32.254Z,95.60
2019-05-11T00:07:00.502Z,95.70
2019-05-11T00:09:28.812Z,96.20
2019-05-11T00:11:57.116Z,96.20
2019-05-11T00:14:25.390Z,96.30
2019-05-11T00:16:53.617Z,96.40
2019-05-11T00:19:21.861Z,96.80
2019-05-11T00:21:50.093Z,96.50
2019-05-11T00:24:18.332Z,96.50
2019-05-11T00:26:46.572Z,96.60
2019-05-11T00:29:14.807Z,96.80
2019-05-11T00:31:43.084Z,96.90
2019-05-11T00:34:11.390Z,97.00
2019-05-11T00:36:39.623Z,97.10
2019-05-11T00:39:07.935Z,97.10
2019-05-11T00:41:36.168Z,97.20
2019-05-11T00:44:04.411Z,97.90
2019-05-11T00:46:32.643Z,97.60
2019-05-11T00:49:00.884Z,97.30
2019-05-11T00:51:29.121Z,97.20
2019-05-11T00:53:57.359Z,97.30
2019-05-11T00:56:25.600Z,97.50
2019-05-11T00:58:53.841Z,97.50
2019-05-11T01:01:22.820Z,97.50
2019-05-11T01:03:51.052Z,97.40
2019-05-11T01:06:19.309Z,97.10
2019-05-11T01:08:47.615Z,97.40
2019-05-11T01:11:15.886Z,97.40
2019-05-11T01:13:44.118Z,97.40
2019-05-11T01:16:12.355Z,97.40
2019-05-11T01:18:40.593Z,97.50
2019-05-11T01:21:08.844Z,97.20
2019-05-11T01:23:37.080Z,97.10
2019-05-11T01:26:05.324Z,97.30
2019-05-11T01:28:33.598Z,97.30
2019-05-11T01:31:01.865Z,97.30
2019-05-11T01:33:30.096Z,97.60
2019-05-11T01:35:58.358Z,97.20
2019-05-11T01:38:26.647Z,97.10
2019-05-11T01:40:58.786Z,97.20
2019-05-11T01:43:24.849Z,97.40
2019-05-11T01:45:53.087Z,97.50
2019-05-11T01:48:21.430Z,97.20
2019-05-11T01:50:49.671Z,97.00
2019-05-11T01:53:17.912Z,97.10
2019-05-11T01:55:46.108Z,97.30
2019-05-11T01:58:14.308Z,97.40
2019-05-11T02:00:42.547Z,97.20
2019-05-11T02:03:10.784Z,97.30
2019-05-11T02:05:38.977Z,97.20
2019-05-11T02:08:07.172Z,97.00
2019-05-11T02:10:35.376Z,96.20
2019-05-11T02:13:03.610Z,96.40
2019-05-11T02:15:31.837Z,96.30
2019-05-11T02:18:00.041Z,96.00
2019-05-11T02:20:28.224Z,96.50
2019-05-11T02:22:56.424Z,96.30
2019-05-11T02:25:24.632Z,96.60
2019-05-11T02:27:52.913Z,96.80
2019-05-11T02:30:21.116Z,96.80
2019-05-11T02:32:49.353Z,96.90
2019-05-11T02:35:17.549Z,97.20
2019-05-11T02:37:45.795Z,97.10
2019-05-11T02:40:13.990Z,96.70
2019-05-11T02:42:42.200Z,96.40
2019-05-11T02:45:10.433Z,96.60
2019-05-11T02:47:38.746Z,96.40
2019-05-11T02:50:06.982Z,96.90
2019-05-11T02:52:35.253Z,96.40
2019-05-11T02:55:03.711Z,96.80
2019-05-11T02:57:31.913Z,96.70
2019-05-11T03:00:00.110Z,96.80
2019-05-11T03:02:28.323Z,96.60
2019-05-11T03:04:56.508Z,96.50
2019-05-11T03:07:24.754Z,96.70
2019-05-11T03:09:52.948Z,96.70
2019-05-11T03:12:21.145Z,96.70
2019-05-11T03:14:49.345Z,96.80
2019-05-11T03:17:19.188Z,96.80
2019-05-11T03:19:47.387Z,96.90
2019-05-11T03:22:15.590Z,97.10
2019-05-11T03:24:43.787Z,97.10
2019-05-11T03:27:11.994Z,96.70
2019-05-11T03:29:40.195Z,97.00
2019-05-11T03:32:08.453Z,97.20
2019-05-11T03:34:36.819Z,97.10
2019-05-11T03:37:04.972Z,97.10
2019-05-11T03:39:33.176Z,97.10
2019-05-11T03:42:14.228Z,97.30
2019-05-11T03:44:31.330Z,97.50
2019-05-11T03:46:59.524Z,97.50
2019-05-11T03:49:27.729Z,97.50
2019-05-11T03:51:55.930Z,97.40
2019-05-11T03:54:24.135Z,97.40
2019-05-11T03:56:52.367Z,97.60
2019-05-11T03:59:20.565Z,97.60
2019-05-11T04:01:48.841Z,97.60
2019-05-11T04:04:17.056Z,97.60
2019-05-11T04:06:45.283Z,97.80
2019-05-11T04:09:13.553Z,97.50
2019-05-11T04:11:41.769Z,97.40
2019-05-11T04:14:10.000Z,97.40
2019-05-11T04:16:38.221Z,97.10
2019-05-11T04:19:06.456Z,97.10
2019-05-11T04:21:34.654Z,96.80
2019-05-11T04:24:02.875Z,96.90
2019-05-11T04:26:31.065Z,97.10
2019-05-11T04:28:59.301Z,96.90
2019-05-11T04:31:27.498Z,96.40
2019-05-11T04:33:55.733Z,96.50
2019-05-11T04:36:23.939Z,96.70
2019-05-11T04:38:52.170Z,97.00
2019-05-11T04:41:20.356Z,96.80
2019-05-11T04:43:48.556Z,96.90
2019-05-11T04:46:16.799Z,97.00
2019-05-11T04:48:44.993Z,97.10
2019-05-11T04:51:13.192Z,97.10
2019-05-11T04:53:41.426Z,97.40
2019-05-11T04:56:09.654Z,97.40
2019-05-11T04:58:37.891Z,97.80
2019-05-11T05:01:06.118Z,97.80
2019-05-11T05:03:40.887Z,98.10
2019-05-11T05:06:22.114Z,98.20
2019-05-11T05:08:34.200Z,98.20
2019-05-11T05:11:02.434Z,97.90
2019-05-11T05:13:31.542Z,97.90
2019-05-11T05:15:59.837Z,97.60
2019-05-11T05:18:28.066Z,97.40
2019-05-11T05:20:56.302Z,97.50
2019-05-11T05:23:24.527Z,97.60
2019-05-11T05:25:52.758Z,98.00
2019-05-11T05:28:20.949Z,98.10
2019-05-11T05:30:49.153Z,98.20
2019-05-11T05:33:17.391Z,98.40
2019-05-11T05:35:45.588Z,98.70
2019-05-11T05:38:13.827Z,98.50
2019-05-11T05:40:42.025Z,98.70
2019-05-11T05:43:25.219Z,98.60
2019-05-11T05:45:40.144Z,98.50
2019-05-11T05:48:08.367Z,98.30
2019-05-11T05:50:36.603Z,98.20
2019-05-11T05:53:04.805Z,98.30
2019-05-11T05:55:33.005Z,98.40
2019-05-11T05:58:01.205Z,98.00
2019-05-11T06:00:29.409Z,97.70
2019-05-11T06:02:57.605Z,97.80
2019-05-11T06:05:25.814Z,97.80
2019-05-11T06:07:54.012Z,98.30
2019-05-11T06:10:22.251Z,98.10
2019-05-11T06:12:50.485Z,98.20
2019-05-11T06:15:18.677Z,98.50
2019-05-11T06:17:46.953Z,98.70
2019-05-11T06:20:15.424Z,98.70
2019-05-11T06:22:43.620Z,98.70
2019-05-11T06:25:12.598Z,98.80
2019-05-11T06:27:40.796Z,98.80
2019-05-11T06:30:09.580Z,99.00
2019-05-11T06:32:37.766Z,99.00
2019-05-11T06:35:06.638Z,98.70
2019-05-11T06:37:34.832Z,98.40
2019-05-11T06:40:04.019Z,98.90
2019-05-11T06:42:32.217Z,98.70
2019-05-11T06:45:00.446Z,99.20
2019-05-11T06:47:28.636Z,99.40
2019-05-11T06:49:56.857Z,99.50
2019-05-11T06:52:25.056Z,98.30
2019-05-11T06:54:53.248Z,97.90
2019-05-11T06:57:21.532Z,98.50
2019-05-11T06:59:49.770Z,98.90
2019-05-11T07:02:17.969Z,98.90
2019-05-11T07:04:46.169Z,99.20
2019-05-11T07:07:14.379Z,99.20
2019-05-11T07:09:42.584Z,99.10
2019-05-11T07:12:10.931Z,98.90
2019-05-11T07:14:39.255Z,98.40
2019-05-11T07:17:07.456Z,98.90
2019-05-11T07:19:35.682Z,99.10
2019-05-11T07:22:03.880Z,99.00
2019-05-11T07:24:32.080Z,98.90
2019-05-11T07:27:00.284Z,99.10
2019-05-11T07:29:28.522Z,99.30
2019-05-11T07:31:59.263Z,98.50
2019-05-11T07:34:27.807Z,98.80
2019-05-11T07:36:57.682Z,98.10
2019-05-11T07:39:27.906Z,98.60
2019-05-11T07:41:58.310Z,98.70
2019-05-11T07:44:37.720Z,98.30
2019-05-11T07:46:55.830Z,97.30
2019-05-11T07:49:24.020Z,97.10
2019-05-11T07:51:52.231Z,97.50
2019-05-11T07:54:20.425Z,97.20
2019-05-11T07:56:48.666Z,97.60
2019-05-11T07:59:18.375Z,97.80
2019-05-11T08:01:47.941Z,96.50
2019-05-11T08:04:18.356Z,96.40
2019-05-11T08:06:47.934Z,96.50
2019-05-11T08:09:18.467Z,96.10
2019-05-11T08:11:47.792Z,96.80
2019-05-11T08:14:18.219Z,96.50
2019-05-11T08:16:48.072Z,95.10
2019-05-11T08:19:18.571Z,95.20
2019-05-11T08:21:47.887Z,95.20
2019-05-11T08:24:17.940Z,94.60
2019-05-11T08:26:47.859Z,95.10
2019-05-11T08:29:15.705Z,94.80
2019-05-11T08:31:43.934Z,95.30
2019-05-11T08:34:12.122Z,94.80
2019-05-11T08:36:40.328Z,93.70
2019-05-11T08:39:08.529Z,94.10
2019-05-11T08:41:38.489Z,94.60
2019-05-11T08:44:08.963Z,94.40
2019-05-11T08:46:38.587Z,93.80
2019-05-11T08:49:08.676Z,93.70
2019-05-11T08:51:38.657Z,93.80
2019-05-11T08:54:08.769Z,94.80
2019-05-11T08:56:38.248Z,93.40
2019-05-11T08:59:08.035Z,93.80
2019-05-11T09:01:39.068Z,92.70
2019-05-11T09:04:08.916Z,93.10
2019-05-11T09:06:37.661Z,92.40
2019-05-11T09:09:08.685Z,92.10
2019-05-11T09:11:36.129Z,90.70
2019-05-11T09:14:04.336Z,89.50
2019-05-11T09:16:32.537Z,90.50
2019-05-11T09:19:00.771Z,90.00
2019-05-11T09:21:28.960Z,89.50
2019-05-11T09:23:57.848Z,87.10
2019-05-11T09:26:28.463Z,88.20
2019-05-11T09:28:58.138Z,82.20
2019-05-11T09:31:27.920Z,81.70
2019-05-11T09:33:58.233Z,81.30
2019-05-11T09:36:28.347Z,81.10
2019-05-11T09:38:58.057Z,80.40
2019-05-11T09:41:25.913Z,76.10
2019-05-11T09:43:54.152Z,75.70
2019-05-11T09:46:22.343Z,75.30
2019-05-11T09:48:50.545Z,74.20
2019-05-11T09:51:18.740Z,73.90
2019-05-11T09:53:48.285Z,73.50
2019-05-11T09:56:18.314Z,73.90
2019-05-11T09:58:48.033Z,73.90
2019-05-11T10:01:18.376Z,72.90
2019-05-11T10:03:48.169Z,75.00
2019-05-11T10:06:18.725Z,75.30
2019-05-11T10:08:48.455Z,74.10
2019-05-11T10:11:16.119Z,72.20
2019-05-11T10:13:44.324Z,72.10
2019-05-11T10:16:12.527Z,70.40
2019-05-11T10:18:40.762Z,71.30
2019-05-11T10:21:08.955Z,71.40
2019-05-11T10:23:38.252Z,71.10
2019-05-11T10:26:07.996Z,71.10
2019-05-11T10:28:38.760Z,71.20
2019-05-11T10:31:08.381Z,71.20
2019-05-11T10:33:38.266Z,70.70
2019-05-11T10:36:07.912Z,71.30
2019-05-11T10:38:37.934Z,72.50
2019-05-11T10:41:08.531Z,71.90
2019-05-11T10:43:38.082Z,71.20
2019-05-11T10:46:17.069Z,71.80
2019-05-11T10:48:36.069Z,73.40
2019-05-11T10:51:04.269Z,72.10
2019-05-11T10:53:32.464Z,71.20
2019-05-11T10:56:00.706Z,71.60
2019-05-11T10:58:28.899Z,72.10
2019-05-11T11:00:58.270Z,71.60
2019-05-11T11:03:28.406Z,72.60
2019-05-11T11:05:58.071Z,72.20
2019-05-11T11:08:27.805Z,71.60
2019-05-11T11:10:58.425Z,72.60
2019-05-11T11:13:28.071Z,72.30
2019-05-11T11:15:58.154Z,72.40
2019-05-11T11:18:28.228Z,72.80
2019-05-11T11:20:58.099Z,72.00
2019-05-11T11:23:28.421Z,72.50
2019-05-11T11:25:58.410Z,73.10
2019-05-11T11:28:28.035Z,71.70
2019-05-11T11:30:58.307Z,75.30
2019-05-11T11:33:27.710Z,78.20
2019-05-11T11:35:58.019Z,78.90
2019-05-11T11:38:28.078Z,80.30
2019-05-11T11:40:55.908Z,80.90
2019-05-11T11:43:24.139Z,81.60
2019-05-11T11:45:52.331Z,81.70
2019-05-11T11:48:20.532Z,82.30
2019-05-11T11:50:48.744Z,84.00
2019-05-11T11:53:18.838Z,83.90
2019-05-11T11:55:48.200Z,83.00
2019-05-11T11:58:23.103Z,83.80
2019-05-11T12:00:48.200Z,83.40
2019-05-11T12:03:18.517Z,81.80
2019-05-11T12:05:47.765Z,80.50
2019-05-11T12:08:16.050Z,80.80
2019-05-11T12:10:44.252Z,81.40
2019-05-11T12:13:12.494Z,83.20
2019-05-11T12:15:40.692Z,84.20
2019-05-11T12:18:08.929Z,83.80
2019-05-11T12:20:39.012Z,83.20
2019-05-11T12:23:08.774Z,84.60
2019-05-11T12:25:40.295Z,83.50
2019-05-11T12:28:08.005Z,83.00
2019-05-11T12:30:37.657Z,84.40
2019-05-11T12:33:08.109Z,83.70
2019-05-11T12:35:37.769Z,83.20
2019-05-11T12:38:07.841Z,83.50
2019-05-11T12:40:35.784Z,85.00
2019-05-11T12:43:03.980Z,85.20
2019-05-11T12:45:32.184Z,85.70
2019-05-11T12:48:00.388Z,87.20
2019-05-11T12:50:28.812Z,87.60
2019-05-11T12:52:58.753Z,88.90
2019-05-11T12:55:28.634Z,88.90
2019-05-11T12:57:57.943Z,90.00
2019-05-11T13:00:30.968Z,90.00
2019-05-11T13:02:58.548Z,90.50
2019-05-11T13:05:28.348Z,90.20
2019-05-11T13:07:58.410Z,90.20
2019-05-11T13:10:28.093Z,87.50
2019-05-11T13:12:57.964Z,85.40
2019-05-11T13:15:27.982Z,84.00
2019-05-11T13:17:57.958Z,83.80
2019-05-11T13:20:25.801Z,82.40
2019-05-11T13:22:54.006Z,81.40
2019-05-11T13:25:22.204Z,81.50
2019-05-11T13:27:50.442Z,82.30
2019-05-11T13:30:18.645Z,80.70
2019-05-11T13:32:48.975Z,80.50
2019-05-11T13:35:17.915Z,82.10
2019-05-11T13:37:47.967Z,81.70
2019-05-11T13:40:18.339Z,80.10
2019-05-11T13:42:48.690Z,81.60
2019-05-11T13:45:17.782Z,80.70
2019-05-11T13:47:52.594Z,80.00
2019-05-11T13:50:17.734Z,72.80
2019-05-11T13:52:47.874Z,70.40
2019-05-11T13:55:17.889Z,72.40
2019-05-11T13:57:48.363Z,73.50
2019-05-11T14:00:17.644Z,75.50
2019-05-11T14:02:48.326Z,76.40
2019-05-11T14:05:17.851Z,76.10
2019-05-11T14:07:48.077Z,76.80
2019-05-11T14:10:17.407Z,75.80
2019-05-11T14:12:47.619Z,77.10
2019-05-11T14:15:15.592Z,78.00
2019-05-11T14:17:43.800Z,82.10
2019-05-11T14:20:11.996Z,81.90
2019-05-11T14:22:40.200Z,83.00
2019-05-11T14:25:08.399Z,82.60
2019-05-11T14:27:38.868Z,81.70
2019-05-11T14:30:08.548Z,81.40
2019-05-11T14:32:38.944Z,79.00
2019-05-11T14:35:11.633Z,71.30
2019-05-11T14:37:37.945Z,69.40
2019-05-11T14:40:08.723Z,69.50
2019-05-11T14:42:38.163Z,70.40
2019-05-11T14:45:08.472Z,70.80
2019-05-11T14:47:38.773Z,69.50
2019-05-11T14:50:08.600Z,71.50
2019-05-11T14:52:38.822Z,72.20
2019-05-11T14:55:08.190Z,74.00
2019-05-11T14:57:36.514Z,75.70
2019-05-11T15:00:08.336Z,77.20
2019-05-11T15:02:49.163Z,78.10
2019-05-11T15:05:18.472Z,78.20
2019-05-11T15:07:47.917Z,78.90
2019-05-11T15:10:18.730Z,79.80
2019-05-11T15:12:48.929Z,79.50
2019-05-11T15:15:18.745Z,80.10
2019-05-11T15:17:48.888Z,80.50
2019-05-11T15:20:17.773Z,80.20
2019-05-11T15:22:48.623Z,81.10
2019-05-11T15:25:19.330Z,80.70
2019-05-11T15:27:48.931Z,80.80
2019-05-11T15:30:18.240Z,79.90
2019-05-11T15:32:48.126Z,80.40
2019-05-11T15:35:18.664Z,80.30
2019-05-11T15:37:47.865Z,80.60
2019-05-11T15:40:18.586Z,80.00
2019-05-11T15:42:48.623Z,80.40
2019-05-11T15:45:18.623Z,80.00
2019-05-11T15:47:48.712Z,80.00
2019-05-11T15:50:18.977Z,80.70
2019-05-11T15:52:48.716Z,80.30
2019-05-11T15:55:18.903Z,80.10
2019-05-11T15:57:48.343Z,80.70
2019-05-11T16:00:16.763Z,80.00
2019-05-11T16:02:44.967Z,80.40
2019-05-11T16:05:13.156Z,80.10
2019-05-11T16:07:41.352Z,80.00
2019-05-11T16:10:09.635Z,80.10
2019-05-11T16:12:39.029Z,81.50
2019-05-11T16:15:08.818Z,81.30
2019-05-11T16:17:39.997Z,80.80
2019-05-11T16:20:08.767Z,80.60
2019-05-11T16:22:38.458Z,79.40
2019-05-11T16:25:08.600Z,79.20
2019-05-11T16:27:37.951Z,79.10
2019-05-11T16:30:09.835Z,79.00
2019-05-11T16:32:38.759Z,80.00
2019-05-11T16:35:08.813Z,79.00
2019-05-11T16:37:37.959Z,79.20
2019-05-11T16:40:09.337Z,79.40
2019-05-11T16:42:38.720Z,80.40
2019-05-11T16:45:08.458Z,79.90
2019-05-11T16:47:38.916Z,79.70
2019-05-11T16:50:08.507Z,79.70
2019-05-11T16:52:38.633Z,79.30
2019-05-11T16:55:07.913Z,79.50
2019-05-11T16:57:38.065Z,78.80
2019-05-11T17:00:08.687Z,79.20
2019-05-11T17:02:38.212Z,78.20
2019-05-11T17:05:07.802Z,76.30
2019-05-11T17:07:37.705Z,76.10
2019-05-11T17:10:08.514Z,76.00
2019-05-11T17:12:38.558Z,75.10
2019-05-11T17:15:08.842Z,75.50
2019-05-11T17:17:37.153Z,75.80
2019-05-11T17:20:07.980Z,76.40
2019-05-11T17:22:38.766Z,74.40
2019-05-11T17:25:08.596Z,75.10
2019-05-11T17:27:37.655Z,72.40
2019-05-11T17:30:08.586Z,72.70
2019-05-11T17:32:38.299Z,72.60
2019-05-11T17:35:08.454Z,72.90
2019-05-11T17:37:38.095Z,73.20
2019-05-11T17:40:09.072Z,73.10
2019-05-11T17:42:37.878Z,74.70
2019-05-11T17:45:08.142Z,73.80
2019-05-11T17:47:38.664Z,74.50
2019-05-11T17:50:08.241Z,73.80
2019-05-11T17:52:38.434Z,74.40
2019-05-11T17:55:06.817Z,74.40
2019-05-11T17:57:35.008Z,74.60
2019-05-11T18:00:04.820Z,75.30
2019-05-11T18:02:33.021Z,75.90
2019-05-11T18:05:01.253Z,75.20
2019-05-11T18:07:30.979Z,75.60
2019-05-11T18:09:59.339Z,77.10
2019-05-11T18:12:28.542Z,76.40
2019-05-11T18:14:58.541Z,75.70
2019-05-11T18:17:26.935Z,76.00
2019-05-11T18:19:55.135Z,76.30
2019-05-11T18:22:23.366Z,77.00
2019-05-11T18:24:51.598Z,77.60
2019-05-11T18:27:19.821Z,77.70
2019-05-11T18:29:48.591Z,77.70
2019-05-11T18:32:16.896Z,77.90
2019-05-11T18:34:45.104Z,78.00
2019-05-11T18:37:13.308Z,77.50
2019-05-11T18:39:41.684Z,77.80
2019-05-11T18:42:09.884Z,78.30
2019-05-11T18:44:38.124Z,79.20
2019-05-11T18:47:08.630Z,78.50
2019-05-11T18:49:38.149Z,79.20
2019-05-11T18:52:08.237Z,79.40
2019-05-11T18:54:38.377Z,79.80
2019-05-11T18:57:08.166Z,80.30
2019-05-11T18:59:37.890Z,80.90
2019-05-11T19:02:08.212Z,81.30
2019-05-11T19:04:38.044Z,81.20
2019-05-11T19:07:15.982Z,81.50
2019-05-11T19:09:37.451Z,81.40
2019-05-11T19:12:05.636Z,81.60
2019-05-11T19:14:33.835Z,81.70
2019-05-11T19:17:02.040Z,81.50
2019-05-11T19:19:30.236Z,81.90
2019-05-11T19:21:58.747Z,82.00
2019-05-11T19:24:27.802Z,81.10
2019-05-11T19:26:58.700Z,81.60
2019-05-11T19:29:28.224Z,81.10
2019-05-11T19:31:57.935Z,80.70
2019-05-11T19:34:27.985Z,81.20
2019-05-11T19:36:57.838Z,81.10
2019-05-11T19:39:27.901Z,82.20
2019-05-11T19:41:55.676Z,81.50
2019-05-11T19:44:23.872Z,81.80
2019-05-11T19:46:52.077Z,81.60
2019-05-11T19:49:20.288Z,82.30
2019-05-11T19:51:48.756Z,82.20
2019-05-11T19:54:18.677Z,82.00
2019-05-11T19:56:47.081Z,82.10
2019-05-11T19:59:15.317Z,82.60
2019-05-11T20:01:43.516Z,82.70
2019-05-11T20:04:11.742Z,83.00
2019-05-11T20:06:39.945Z,83.10
2019-05-11T20:09:08.804Z,83.30
2019-05-11T20:11:38.390Z,83.90
2019-05-11T20:14:08.060Z,84.70
2019-05-11T20:16:36.426Z,84.20
2019-05-11T20:19:04.731Z,84.50
2019-05-11T20:21:32.932Z,85.10
2019-05-11T20:24:01.162Z,84.70
2019-05-11T20:26:29.390Z,85.20
2019-05-11T20:28:58.750Z,84.40
2019-05-11T20:31:27.708Z,84.70
2019-05-11T20:33:56.042Z,84.80
2019-05-11T20:36:24.264Z,85.10
2019-05-11T20:38:52.524Z,85.30
2019-05-11T20:41:20.725Z,85.20
2019-05-11T20:43:48.925Z,85.20
2019-05-11T20:46:18.447Z,85.40
2019-05-11T20:48:48.542Z,85.50
2019-05-11T20:51:32.820Z,85.60
2019-05-11T20:53:48.826Z,86.00
2019-05-11T20:56:17.816Z,85.50
2019-05-11T20:58:55.682Z,86.00
2019-05-11T21:01:25.017Z,86.70
2019-05-11T21:03:53.220Z,86.20
2019-05-11T21:06:21.420Z,86.60
2019-05-11T21:08:49.651Z,86.80
2019-05-11T21:11:18.110Z,87.20
2019-05-11T21:13:48.108Z,87.30
2019-05-11T21:16:16.555Z,87.80
2019-05-11T21:18:44.748Z,87.90
2019-05-11T21:21:12.997Z,88.50
2019-05-11T21:23:41.201Z,88.40
2019-05-11T21:26:10.034Z,89.10
2019-05-11T21:28:38.293Z,89.80
2019-05-11T21:31:08.013Z,90.00
2019-05-11T21:33:37.882Z,90.10
2019-05-11T21:36:08.648Z,90.20
2019-05-11T21:38:38.508Z,90.20
2019-05-11T21:41:08.599Z,90.50
2019-05-11T21:43:37.649Z,90.60
2019-05-11T21:46:08.151Z,90.60
2019-05-11T21:48:38.926Z,90.70
2019-05-11T21:51:08.661Z,90.80
2019-05-11T21:53:38.130Z,91.00
2019-05-11T21:56:08.151Z,91.00
2019-05-11T21:58:37.757Z,91.20
2019-05-11T22:01:06.112Z,91.50
2019-05-11T22:03:34.358Z,91.60
2019-05-11T22:06:02.554Z,91.70
2019-05-11T22:08:30.756Z,91.70
2019-05-11T22:11:00.000Z,91.70
2019-05-11T22:13:28.811Z,91.90
2019-05-11T22:15:58.035Z,92.00
2019-05-11T22:18:31.017Z,92.20
2019-05-11T22:20:57.981Z,92.40
2019-05-11T22:23:28.191Z,92.40
2019-05-11T22:25:58.523Z,92.60
2019-05-11T22:28:28.401Z,92.50
2019-05-11T22:30:56.128Z,92.80
2019-05-11T22:33:24.365Z,92.80
2019-05-11T22:35:52.557Z,92.70
2019-05-11T22:38:20.777Z,93.00
2019-05-11T22:40:48.982Z,93.20
2019-05-11T22:43:18.185Z,93.30
2019-05-11T22:45:48.518Z,93.30
2019-05-11T22:48:16.519Z,93.60
2019-05-11T22:50:44.781Z,94.00
2019-05-11T22:53:12.985Z,94.50
2019-05-11T22:55:41.178Z,94.70
2019-05-11T22:58:09.374Z,95.00
2019-05-11T23:00:42.613Z,94.90
2019-05-11T23:03:11.170Z,95.30
2019-05-11T23:05:40.021Z,95.70
2019-05-11T23:08:08.225Z,96.10
2019-05-11T23:10:38.562Z,96.20
2019-05-11T23:13:08.322Z,96.60
2019-05-11T23:15:40.099Z,96.80
2019-05-11T23:18:08.135Z,96.90
2019-05-11T23:20:38.080Z,97.40
2019-05-11T23:23:08.470Z,97.50
2019-05-11T23:25:36.010Z,97.50
2019-05-11T23:28:04.235Z,97.80
2019-05-11T23:30:32.420Z,97.90
2019-05-11T23:33:00.617Z,98.10
2019-05-11T23:35:29.264Z,98.00
2019-05-11T23:37:58.101Z,98.00
2019-05-11T23:40:28.460Z,98.50
2019-05-11T23:42:57.928Z,98.40
2019-05-11T23:45:28.021Z,98.60
2019-05-11T23:47:58.658Z,98.60
2019-05-11T23:50:28.229Z,98.70
2019-05-11T23:53:05.973Z,98.80
2019-05-11T23:55:26.005Z,98.90
2019-05-11T23:57:54.214Z,99.00
